createdAt,value
2023-04-26T00:01:53.183Z,4.22
2023-04-26T00:04:58.844Z,4.40
2023-04-26T00:08:01.595Z,4.20
2023-04-26T00:11:04.113Z,4.17
2023-04-26T00:14:06.770Z,3.97
2023-04-26T00:17:09.437Z,4.17
2023-04-26T00:20:14.097Z,3.43
2023-04-26T00:23:17.361Z,3.73
2023-04-26T00:26:19.829Z,3.78
2023-04-26T00:29:22.369Z,4.03
2023-04-26T00:32:24.891Z,4.03
2023-04-26T00:35:28.848Z,4.13
2023-04-26T00:38:31.604Z,4.03
2023-04-26T00:41:34.289Z,4.20
2023-04-26T00:44:40.006Z,5.50
2023-04-26T00:47:42.687Z,4.40
2023-04-26T00:50:47.691Z,3.60
2023-04-26T00:53:50.489Z,3.67
2023-04-26T00:56:53.332Z,3.20
2023-04-26T00:59:56.360Z,3.47
2023-04-26T01:02:59.044Z,4.18
2023-04-26T01:06:02.991Z,3.63
2023-04-26T01:09:09.876Z,3.13
2023-04-26T01:12:13.074Z,4.03
2023-04-26T01:15:15.624Z,3.67
2023-04-26T01:18:18.243Z,3.53
2023-04-26T01:21:22.796Z,3.10
2023-04-26T01:24:26.704Z,3.37
2023-04-26T01:27:29.248Z,3.90
2023-04-26T01:30:31.801Z,3.60
2023-04-26T01:33:34.273Z,3.10
2023-04-26T01:36:37.018Z,3.63
2023-04-26T01:39:41.009Z,3.30
2023-04-26T01:42:43.660Z,4.33
2023-04-26T01:45:47.763Z,3.43
2023-04-26T01:48:50.540Z,3.47
2023-04-26T01:51:53.387Z,3.95
2023-04-26T01:54:57.342Z,3.33
2023-04-26T01:57:59.913Z,3.50
2023-04-26T02:01:07.968Z,4.13
2023-04-26T02:04:10.632Z,3.90
2023-04-26T02:07:13.161Z,3.50
2023-04-26T02:10:17.037Z,3.60
2023-04-26T02:13:19.564Z,3.37
2023-04-26T02:16:22.385Z,3.67
2023-04-26T02:19:25.057Z,3.67
2023-04-26T02:22:27.716Z,4.17
2023-04-26T02:25:32.198Z,3.95
2023-04-26T02:28:34.708Z,5.00
2023-04-26T02:31:37.286Z,3.53
2023-04-26T02:34:39.796Z,4.30
2023-04-26T02:37:42.281Z,3.50
2023-04-26T02:40:46.154Z,4.13
2023-04-26T02:43:48.647Z,3.90
2023-04-26T02:46:51.255Z,3.40
2023-04-26T02:49:53.733Z,3.70
2023-04-26T02:52:56.292Z,4.03
2023-04-26T02:56:00.982Z,3.60
2023-04-26T02:59:03.498Z,3.50
2023-04-26T03:02:06.226Z,3.87
2023-04-26T03:05:10.720Z,4.20
2023-04-26T03:08:13.480Z,4.30
2023-04-26T03:11:17.637Z,4.13
2023-04-26T03:14:20.155Z,4.13
2023-04-26T03:17:22.822Z,4.20
2023-04-26T03:20:25.597Z,4.10
2023-04-26T03:23:28.700Z,4.13
2023-04-26T03:26:32.609Z,4.07
2023-04-26T03:29:35.267Z,4.83
2023-04-26T03:32:38.386Z,4.40
2023-04-26T03:35:41.018Z,4.90
2023-04-26T03:38:43.875Z,4.80
2023-04-26T03:41:47.844Z,4.50
2023-04-26T03:44:50.548Z,5.07
2023-04-26T03:47:53.356Z,5.43
2023-04-26T03:50:56.261Z,5.55
2023-04-26T03:53:59.881Z,5.10
2023-04-26T03:57:03.880Z,6.10
2023-04-26T04:00:10.107Z,6.23
2023-04-26T04:03:12.925Z,6.57
2023-04-26T04:06:15.784Z,7.05
2023-04-26T04:09:18.296Z,8.03
2023-04-26T04:12:22.918Z,7.77
2023-04-26T04:15:25.652Z,7.70
2023-04-26T04:18:28.268Z,8.50
2023-04-26T04:21:32.053Z,7.63
2023-04-26T04:27:38.992Z,8.00
2023-04-26T04:30:43.619Z,8.60
2023-04-26T04:33:46.438Z,8.53
2023-04-26T04:36:48.937Z,8.93
2023-04-26T04:39:51.549Z,8.57
2023-04-26T04:42:55.736Z,8.37
2023-04-26T04:45:58.900Z,10.27
2023-04-26T04:49:02.152Z,8.95
2023-04-26T04:52:05.336Z,10.27
2023-04-26T04:55:08.458Z,8.40
2023-04-26T04:58:14.036Z,9.65
2023-04-26T05:01:16.633Z,8.37
2023-04-26T05:04:19.489Z,9.67
2023-04-26T05:07:24.422Z,9.77
2023-04-26T05:10:27.262Z,9.70
2023-04-26T05:13:31.213Z,9.53
2023-04-26T05:16:35.551Z,11.00
2023-04-26T05:19:38.233Z,9.23
2023-04-26T05:22:41.358Z,10.67
2023-04-26T05:25:43.929Z,10.25
2023-04-26T05:28:47.861Z,9.47
2023-04-26T05:31:50.725Z,9.10
2023-04-26T05:34:54.486Z,11.95
2023-04-26T05:40:59.599Z,9.63
2023-04-26T05:44:03.939Z,10.57
2023-04-26T05:47:06.539Z,10.63
2023-04-26T05:50:10.157Z,8.83
2023-04-26T05:53:12.796Z,9.80
2023-04-26T05:56:15.527Z,8.90
2023-04-26T05:59:19.486Z,10.33
2023-04-26T06:02:22.106Z,7.63
2023-04-26T06:05:25.009Z,9.50
2023-04-26T06:08:28.369Z,9.07
2023-04-26T06:11:31.202Z,8.95
2023-04-26T06:14:35.114Z,7.70
2023-04-26T06:17:37.709Z,10.27
2023-04-26T06:20:40.365Z,8.30
2023-04-26T06:23:43.204Z,7.93
2023-04-26T06:26:45.805Z,8.60
2023-04-26T06:29:50.543Z,7.83
2023-04-26T06:32:53.169Z,7.90
2023-04-26T06:35:55.845Z,8.70
2023-04-26T06:38:58.413Z,7.00
2023-04-26T06:42:01.370Z,7.50
2023-04-26T06:45:06.567Z,6.05
2023-04-26T06:48:09.288Z,5.07
2023-04-26T06:51:12.115Z,5.50
2023-04-26T06:54:14.986Z,5.68
2023-04-26T06:57:17.618Z,5.75
2023-04-26T07:00:22.596Z,4.33
2023-04-26T07:03:25.748Z,3.37
2023-04-26T07:06:28.548Z,3.00
2023-04-26T07:09:31.689Z,2.88
2023-04-26T07:12:34.255Z,4.15
2023-04-26T07:15:38.440Z,4.20
2023-04-26T07:18:41.273Z,3.90
2023-04-26T07:21:43.921Z,3.47
2023-04-26T07:24:46.479Z,4.50
2023-04-26T07:27:51.618Z,3.33
2023-04-26T07:30:55.778Z,3.47
2023-04-26T07:33:58.371Z,4.07
2023-04-26T07:37:01.683Z,3.80
2023-04-26T07:40:08.039Z,3.25
2023-04-26T07:43:10.694Z,3.40
2023-04-26T07:46:14.944Z,3.87
2023-04-26T07:49:17.565Z,3.77
2023-04-26T07:52:20.539Z,4.70
2023-04-26T07:55:23.204Z,4.53
2023-04-26T07:58:25.823Z,4.17
2023-04-26T08:01:30.320Z,3.80
2023-04-26T08:04:34.750Z,3.53
2023-04-26T08:07:37.715Z,3.50
2023-04-26T08:10:41.752Z,3.25
2023-04-26T08:13:45.041Z,4.03
2023-04-26T08:16:49.140Z,4.15
2023-04-26T08:19:51.693Z,3.60
2023-04-26T08:22:56.774Z,3.50
2023-04-26T08:25:59.647Z,3.47
2023-04-26T08:29:02.281Z,3.25
2023-04-26T08:32:07.180Z,4.13
2023-04-26T08:35:10.683Z,3.57
2023-04-26T08:38:13.417Z,3.47
2023-04-26T08:41:16.766Z,4.13
2023-04-26T08:44:24.234Z,4.00
2023-04-26T08:47:31.641Z,3.40
2023-04-26T08:50:34.890Z,3.43
2023-04-26T08:53:38.224Z,3.10
2023-04-26T08:56:44.222Z,3.13
2023-04-26T08:59:46.845Z,3.13
2023-04-26T09:02:52.520Z,3.67
2023-04-26T09:05:55.857Z,3.53
2023-04-26T09:08:58.893Z,3.05
2023-04-26T09:12:03.246Z,3.42
2023-04-26T09:15:07.321Z,3.27
2023-04-26T09:18:21.791Z,3.00
2023-04-26T09:21:24.422Z,3.57
2023-04-26T09:24:27.047Z,3.42
2023-04-26T09:27:37.453Z,4.65
2023-04-26T09:30:40.431Z,3.60
2023-04-26T09:34:02.118Z,3.70
2023-04-26T09:37:04.850Z,3.23
2023-04-26T09:40:11.873Z,3.50
2023-04-26T09:43:15.979Z,3.87
2023-04-26T09:46:23.880Z,3.70
2023-04-26T09:49:28.958Z,3.30
2023-04-26T09:52:31.775Z,3.70
2023-04-26T09:55:35.920Z,4.25
2023-04-26T09:58:39.674Z,2.97
2023-04-26T10:01:42.652Z,5.43
2023-04-26T10:04:48.133Z,3.70
2023-04-26T10:07:51.842Z,3.23
2023-04-26T10:10:55.487Z,3.20
2023-04-26T10:13:58.124Z,3.17
2023-04-26T10:17:01.641Z,3.42
2023-04-26T10:20:10.114Z,3.20
2023-04-26T10:23:20.161Z,3.73
2023-04-26T10:26:48.199Z,2.60
2023-04-26T10:30:12.201Z,3.80
2023-04-26T10:33:15.188Z,3.27
2023-04-26T10:36:21.114Z,3.00
2023-04-26T10:39:25.096Z,3.10
2023-04-26T10:42:30.278Z,3.20
2023-04-26T10:45:33.083Z,3.10
2023-04-26T10:48:35.767Z,2.55
2023-04-26T10:51:39.765Z,3.03
2023-04-26T10:54:52.709Z,3.00
2023-04-26T10:57:57.386Z,2.55
2023-04-26T11:01:07.120Z,3.20
2023-04-26T11:04:11.616Z,3.10
2023-04-26T11:07:16.230Z,2.77
2023-04-26T11:10:23.852Z,2.37
2023-04-26T11:13:26.653Z,2.70
2023-04-26T11:16:30.077Z,2.70
2023-04-26T11:22:40.792Z,2.10
2023-04-26T11:25:43.394Z,3.40
2023-04-26T11:28:46.537Z,3.30
2023-04-26T11:31:54.516Z,2.53
2023-04-26T11:35:01.407Z,2.80
2023-04-26T11:38:06.619Z,2.80
2023-04-26T11:41:10.461Z,3.30
2023-04-26T11:44:13.151Z,2.93
2023-04-26T11:47:15.767Z,3.45
2023-04-26T11:50:18.991Z,2.60
2023-04-26T11:53:23.442Z,3.45
2023-04-26T11:56:26.862Z,2.87
2023-04-26T12:02:32.423Z,2.33
2023-04-26T12:05:35.151Z,2.80
2023-04-26T12:08:39.124Z,3.10
2023-04-26T12:11:41.795Z,2.27
2023-04-26T12:14:45.449Z,2.58
2023-04-26T12:17:58.289Z,3.20
2023-04-26T12:21:01.294Z,2.72
2023-04-26T12:24:05.777Z,3.05
2023-04-26T12:27:08.546Z,2.70
2023-04-26T12:30:11.631Z,2.42
2023-04-26T12:33:17.457Z,2.80
2023-04-26T12:36:21.162Z,2.30
2023-04-26T12:39:25.119Z,2.05
2023-04-26T12:42:27.793Z,2.93
2023-04-26T12:45:30.451Z,2.50
2023-04-26T12:48:34.201Z,2.47
2023-04-26T12:51:36.772Z,2.35
2023-04-26T12:54:40.682Z,3.00
2023-04-26T12:57:44.576Z,2.20
2023-04-26T13:00:47.128Z,2.23
2023-04-26T13:03:49.888Z,2.08
2023-04-26T13:06:53.015Z,2.15
2023-04-26T13:09:56.983Z,2.35
2023-04-26T13:12:59.759Z,2.43
2023-04-26T13:16:02.412Z,2.28
2023-04-26T13:19:05.161Z,2.15
2023-04-26T13:22:10.008Z,2.03
2023-04-26T13:25:15.687Z,2.27
2023-04-26T13:28:18.234Z,1.92
2023-04-26T13:31:21.109Z,2.40
2023-04-26T13:37:27.006Z,2.53
2023-04-26T13:40:31.063Z,1.88
2023-04-26T13:43:33.639Z,2.40
2023-04-26T13:46:36.749Z,2.45
2023-04-26T13:49:40.084Z,2.30
2023-04-26T13:52:42.924Z,2.10
2023-04-26T13:55:46.901Z,2.45
2023-04-26T13:58:49.794Z,2.30
2023-04-26T14:01:54.704Z,2.17
2023-04-26T14:04:58.523Z,2.35
2023-04-26T14:08:01.290Z,3.25
2023-04-26T14:11:06.127Z,2.25
2023-04-26T14:14:08.694Z,2.40
2023-04-26T14:17:11.660Z,2.75
2023-04-26T14:23:16.955Z,2.80
2023-04-26T14:26:21.533Z,2.17
2023-04-26T14:29:24.127Z,2.30
2023-04-26T14:32:26.922Z,2.28
2023-04-26T14:35:29.518Z,2.33
2023-04-26T14:38:32.431Z,2.63
2023-04-26T14:41:36.353Z,2.20
2023-04-26T14:44:38.971Z,2.27
2023-04-26T14:47:41.547Z,2.30
2023-04-26T14:50:44.197Z,2.45
2023-04-26T14:53:47.071Z,2.30
2023-04-26T14:59:54.113Z,2.80
2023-04-26T15:02:56.873Z,2.58
2023-04-26T15:09:02.549Z,2.58
2023-04-26T15:12:07.920Z,2.50
2023-04-26T15:15:11.333Z,2.23
2023-04-26T15:18:16.738Z,2.53
2023-04-26T15:21:19.663Z,3.00
2023-04-26T15:24:22.524Z,3.00
2023-04-26T15:27:26.938Z,2.22
2023-04-26T15:30:30.323Z,2.63
2023-04-26T15:33:32.920Z,2.37
2023-04-26T15:36:35.520Z,2.25
2023-04-26T15:39:38.289Z,2.75
2023-04-26T15:42:42.196Z,2.63
2023-04-26T15:45:44.763Z,2.50
2023-04-26T15:48:48.164Z,2.63
2023-04-26T15:51:50.729Z,2.15
2023-04-26T15:54:53.383Z,2.25
2023-04-26T15:57:57.554Z,2.40
2023-04-26T16:01:00.332Z,2.00
2023-04-26T16:07:05.975Z,2.27
2023-04-26T16:10:10.117Z,2.53
2023-04-26T16:13:16.373Z,2.77
2023-04-26T16:16:19.302Z,2.33
2023-04-26T16:19:22.932Z,1.95
2023-04-26T16:22:25.730Z,2.30
2023-04-26T16:25:28.145Z,2.47
2023-04-26T16:28:32.069Z,2.53
2023-04-26T16:31:34.896Z,2.70
2023-04-26T16:34:37.534Z,2.05
2023-04-26T16:37:41.742Z,2.60
2023-04-26T16:40:44.345Z,2.40
2023-04-26T16:43:48.509Z,2.42
2023-04-26T16:46:51.182Z,2.20
2023-04-26T16:49:53.926Z,2.17
2023-04-26T16:52:56.559Z,1.58
2023-04-26T16:55:59.365Z,2.55
2023-04-26T16:59:03.249Z,1.90
2023-04-26T17:02:06.061Z,2.27
2023-04-26T17:05:10.026Z,2.20
2023-04-26T17:08:12.718Z,2.27
2023-04-26T17:11:16.145Z,2.47
2023-04-26T17:17:22.529Z,2.00
2023-04-26T17:20:25.161Z,2.65
2023-04-26T17:23:27.867Z,2.45
2023-04-26T17:26:30.945Z,1.80
2023-04-26T17:29:35.116Z,2.63
2023-04-26T17:32:37.854Z,2.00
2023-04-26T17:35:40.441Z,2.40
2023-04-26T17:38:43.344Z,1.85
2023-04-26T17:41:46.008Z,2.22
2023-04-26T17:44:49.973Z,1.80
2023-04-26T17:47:52.554Z,3.00
2023-04-26T17:50:55.148Z,2.90
2023-04-26T17:53:57.864Z,1.90
2023-04-26T17:57:00.465Z,2.33
2023-04-26T18:00:05.474Z,2.20
2023-04-26T18:03:08.432Z,2.30
2023-04-26T18:06:11.481Z,2.47
2023-04-26T18:09:14.083Z,2.10
2023-04-26T18:12:16.743Z,2.13
2023-04-26T18:15:20.864Z,2.47
2023-04-26T18:18:25.187Z,2.20
2023-04-26T18:21:29.748Z,2.17
2023-04-26T18:24:32.294Z,2.50
2023-04-26T18:27:34.990Z,2.37
2023-04-26T18:30:38.948Z,1.90
2023-04-26T18:33:41.493Z,2.00
2023-04-26T18:36:44.222Z,1.87
2023-04-26T18:39:46.830Z,2.45
2023-04-26T18:42:49.523Z,2.35
2023-04-26T18:45:53.501Z,1.92
2023-04-26T18:48:56.280Z,2.07
2023-04-26T18:51:58.810Z,2.10
2023-04-26T18:55:01.348Z,2.70
2023-04-26T18:58:03.980Z,2.30
2023-04-26T19:01:08.071Z,3.60
2023-04-26T19:04:10.929Z,2.10
2023-04-26T19:07:13.629Z,2.20
2023-04-26T19:10:16.565Z,2.03
2023-04-26T19:13:19.630Z,2.53
2023-04-26T19:16:23.750Z,2.28
2023-04-26T19:19:26.427Z,2.07
2023-04-26T19:22:29.075Z,2.70
2023-04-26T19:25:31.646Z,2.40
2023-04-26T19:28:34.478Z,2.30
2023-04-26T19:31:38.860Z,2.03
2023-04-26T19:34:41.502Z,2.10
2023-04-26T19:37:44.080Z,2.37
2023-04-26T19:40:46.808Z,2.47
2023-04-26T19:43:49.494Z,2.20
2023-04-26T19:46:53.761Z,2.50
2023-04-26T19:49:57.837Z,2.70
2023-04-26T19:53:00.478Z,2.20
2023-04-26T19:56:03.100Z,2.13
2023-04-26T19:59:06.033Z,2.97
2023-04-26T20:02:10.153Z,2.90
2023-04-26T20:05:13.230Z,3.00
2023-04-26T20:08:15.817Z,2.78
2023-04-26T20:11:19.231Z,2.40
2023-04-26T20:14:21.756Z,3.22
2023-04-26T20:17:25.800Z,1.97
2023-04-26T20:20:28.599Z,1.90
2023-04-26T20:23:31.401Z,2.50
2023-04-26T20:26:33.936Z,2.65
2023-04-26T20:29:37.177Z,2.93
2023-04-26T20:32:41.109Z,2.85
2023-04-26T20:35:43.704Z,2.60
2023-04-26T20:38:46.322Z,2.67
2023-04-26T20:41:48.881Z,2.70
2023-04-26T20:44:51.470Z,3.13
2023-04-26T20:47:55.558Z,1.93
2023-04-26T20:50:58.724Z,2.17
2023-04-26T20:54:01.369Z,2.30
2023-04-26T20:57:04.460Z,2.53
2023-04-26T21:00:10.348Z,3.22
2023-04-26T21:03:14.613Z,2.60
2023-04-26T21:06:17.264Z,2.43
2023-04-26T21:09:19.840Z,2.30
2023-04-26T21:12:22.457Z,2.50
2023-04-26T21:15:25.044Z,2.00
2023-04-26T21:18:28.946Z,2.67
2023-04-26T21:21:32.612Z,2.40
2023-04-26T21:27:37.877Z,5.30
2023-04-26T21:30:40.509Z,3.30
2023-04-26T21:33:44.380Z,3.00
2023-04-26T21:36:47.319Z,2.37
2023-04-26T21:39:49.933Z,3.05
2023-04-26T21:43:03.911Z,3.50
2023-04-26T21:46:07.905Z,2.90
2023-04-26T21:49:12.211Z,3.70
2023-04-26T21:52:14.875Z,4.67
2023-04-26T21:55:17.482Z,3.23
2023-04-26T21:58:20.562Z,2.77
2023-04-26T22:01:23.378Z,2.78
2023-04-26T22:04:27.290Z,3.00
2023-04-26T22:07:30.104Z,2.90
2023-04-26T22:10:32.899Z,3.38
2023-04-26T22:13:35.777Z,3.03
2023-04-26T22:16:38.278Z,2.53
2023-04-26T22:19:42.188Z,2.50
2023-04-26T22:22:44.743Z,2.63
2023-04-26T22:25:47.374Z,3.33
2023-04-26T22:28:49.893Z,2.53
2023-04-26T22:31:52.487Z,2.30
2023-04-26T22:34:56.402Z,3.00
2023-04-26T22:37:59.020Z,2.63
2023-04-26T22:41:01.531Z,2.60
2023-04-26T22:44:04.077Z,2.67
2023-04-26T22:47:06.657Z,2.30
2023-04-26T22:50:11.797Z,2.63
2023-04-26T22:53:14.384Z,3.00
2023-04-26T22:56:17.033Z,2.40
2023-04-26T22:59:19.616Z,2.73
2023-04-26T23:02:22.343Z,2.50
2023-04-26T23:05:26.338Z,2.90
2023-04-26T23:08:28.840Z,3.03
2023-04-26T23:11:31.802Z,2.70
2023-04-26T23:14:35.105Z,2.40
2023-04-26T23:17:39.009Z,2.33
2023-04-26T23:23:45.395Z,2.58
2023-04-26T23:26:47.932Z,2.50
2023-04-26T23:29:50.967Z,2.53
2023-04-26T23:32:53.559Z,2.30
2023-04-26T23:35:57.702Z,2.40
2023-04-26T23:39:00.212Z,2.30
2023-04-26T23:42:03.727Z,2.20
2023-04-26T23:45:07.759Z,2.10
2023-04-26T23:48:10.371Z,2.17
2023-04-26T23:51:14.349Z,1.93
2023-04-26T23:54:17.004Z,2.03
2023-04-26T23:57:19.582Z,2.60
